createdAt,value
2024-01-31T00:02:17.626Z,-0.25
2024-01-31T00:04:44.619Z,-0.15
2024-01-31T00:07:11.609Z,-0.19
2024-01-31T00:09:39.227Z,-0.09
2024-01-31T00:12:06.202Z,-0.13
2024-01-31T00:14:33.275Z,-0.10
2024-01-31T00:17:00.256Z,-0.04
2024-01-31T00:19:27.331Z,-0.04
2024-01-31T00:21:54.342Z,-0.04
2024-01-31T00:24:21.250Z,0.05
2024-01-31T00:26:48.148Z,0.06
2024-01-31T00:29:15.065Z,-0.03
2024-01-31T00:31:42.051Z,0.04
2024-01-31T00:34:09.194Z,0.09
2024-01-31T00:36:36.233Z,0.09
2024-01-31T00:39:03.121Z,0.11
2024-01-31T00:41:31.181Z,0.10
2024-01-31T00:43:58.064Z,0.09
2024-01-31T00:46:25.201Z,0.16
2024-01-31T00:48:52.169Z,0.12
2024-01-31T00:51:19.108Z,0.20
2024-01-31T00:53:45.989Z,0.27
2024-01-31T00:56:13.017Z,0.15
2024-01-31T00:58:40.238Z,0.24
2024-01-31T01:01:07.386Z,0.13
2024-01-31T01:03:34.286Z,0.08
2024-01-31T01:06:01.309Z,0.08
2024-01-31T01:08:28.395Z,0.05
2024-01-31T01:10:56.817Z,0.10
2024-01-31T01:13:24.004Z,0.09
2024-01-31T01:15:51.013Z,0.23
2024-01-31T01:18:17.927Z,0.20
2024-01-31T01:20:45.854Z,0.11
2024-01-31T01:23:15.152Z,0.21
2024-01-31T01:25:42.231Z,0.15
2024-01-31T01:28:09.157Z,0.16
2024-01-31T01:30:36.125Z,0.19
2024-01-31T01:33:03.108Z,0.22
2024-01-31T01:35:30.320Z,0.22
2024-01-31T01:37:57.265Z,0.27
2024-01-31T01:40:24.215Z,0.27
2024-01-31T01:42:51.219Z,0.18
2024-01-31T01:45:18.082Z,0.12
2024-01-31T01:47:49.689Z,0.12
2024-01-31T01:50:17.551Z,0.13
2024-01-31T01:52:44.557Z,0.11
2024-01-31T01:55:11.728Z,0.09
2024-01-31T01:57:39.891Z,0.12
2024-01-31T02:00:09.203Z,0.12
2024-01-31T02:02:36.474Z,0.30
2024-01-31T02:05:04.122Z,0.27
2024-01-31T02:07:31.315Z,0.22
2024-01-31T02:10:00.506Z,0.20
2024-01-31T02:12:28.130Z,0.25
2024-01-31T02:14:57.206Z,0.24
2024-01-31T02:17:24.132Z,0.40
2024-01-31T02:19:51.918Z,0.32
2024-01-31T02:22:19.764Z,0.34
2024-01-31T02:24:47.026Z,0.34
2024-01-31T02:27:14.026Z,0.43
2024-01-31T02:29:41.200Z,0.62
2024-01-31T02:32:08.162Z,0.72
2024-01-31T02:34:35.509Z,0.63
2024-01-31T02:37:03.152Z,0.60
2024-01-31T02:39:32.386Z,0.63
2024-01-31T02:41:59.542Z,0.62
2024-01-31T02:44:26.520Z,0.66
2024-01-31T02:46:53.799Z,0.65
2024-01-31T02:49:20.853Z,0.88
2024-01-31T02:51:47.997Z,0.93
2024-01-31T02:54:14.875Z,0.98
2024-01-31T02:56:41.843Z,0.89
2024-01-31T02:59:08.827Z,0.74
2024-01-31T03:01:37.544Z,0.59
2024-01-31T03:04:04.695Z,0.60
2024-01-31T03:06:31.753Z,0.59
2024-01-31T03:08:58.734Z,0.51
2024-01-31T03:11:25.683Z,0.75
2024-01-31T03:13:53.236Z,1.00
2024-01-31T03:16:20.355Z,1.40
2024-01-31T03:18:47.417Z,1.62
2024-01-31T03:21:14.343Z,1.74
2024-01-31T03:23:41.234Z,1.84
2024-01-31T03:26:08.100Z,1.81
2024-01-31T03:28:35.025Z,1.73
2024-01-31T03:31:01.957Z,1.72
2024-01-31T03:33:29.127Z,1.81
2024-01-31T03:35:56.115Z,1.67
2024-01-31T03:38:23.525Z,1.47
2024-01-31T03:40:50.587Z,1.35
2024-01-31T03:43:18.191Z,1.18
2024-01-31T03:45:45.200Z,1.36
2024-01-31T03:48:12.152Z,1.73
2024-01-31T03:50:39.123Z,1.58
2024-01-31T03:53:06.000Z,1.76
2024-01-31T03:55:34.542Z,1.84
2024-01-31T03:58:01.620Z,1.54
2024-01-31T04:00:28.894Z,1.39
2024-01-31T04:02:57.084Z,1.23
2024-01-31T04:05:24.135Z,1.14
2024-01-31T04:07:51.221Z,1.04
2024-01-31T04:10:18.292Z,0.97
2024-01-31T04:12:46.528Z,1.07
2024-01-31T04:15:13.568Z,1.12
2024-01-31T04:17:40.602Z,2.07
2024-01-31T04:20:08.068Z,2.11
2024-01-31T04:22:35.078Z,2.26
2024-01-31T04:25:02.063Z,2.21
2024-01-31T04:27:29.005Z,2.20
2024-01-31T04:29:55.906Z,2.12
2024-01-31T04:32:25.934Z,2.03
2024-01-31T04:34:52.869Z,1.94
2024-01-31T04:37:19.861Z,1.88
2024-01-31T04:39:51.682Z,2.12
2024-01-31T04:42:18.727Z,2.02
2024-01-31T04:44:46.795Z,2.00
2024-01-31T04:47:13.967Z,2.03
2024-01-31T04:49:41.141Z,1.88
2024-01-31T04:52:08.113Z,2.06
2024-01-31T04:54:38.616Z,2.12
2024-01-31T04:57:06.220Z,2.21
2024-01-31T04:59:36.889Z,2.50
2024-01-31T05:02:03.999Z,2.00
2024-01-31T05:04:31.053Z,1.72
2024-01-31T05:06:58.056Z,1.70
2024-01-31T05:09:25.005Z,2.02
2024-01-31T05:11:52.083Z,2.74
2024-01-31T05:14:19.310Z,2.89
2024-01-31T05:16:46.379Z,2.68
2024-01-31T05:19:13.826Z,2.55
2024-01-31T05:21:47.384Z,2.57
2024-01-31T05:24:14.620Z,2.69
2024-01-31T05:26:42.052Z,2.65
2024-01-31T05:29:09.091Z,2.62
2024-01-31T05:31:36.090Z,2.95
2024-01-31T05:34:03.708Z,2.79
2024-01-31T05:36:30.713Z,2.73
2024-01-31T05:38:57.828Z,2.55
2024-01-31T05:41:24.808Z,2.41
2024-01-31T05:43:51.907Z,2.47
2024-01-31T05:46:20.067Z,2.52
2024-01-31T05:48:47.427Z,2.71
2024-01-31T05:51:15.101Z,2.79
2024-01-31T05:53:42.830Z,2.87
2024-01-31T05:56:09.743Z,2.87
2024-01-31T05:58:36.794Z,3.08
2024-01-31T06:01:03.888Z,3.19
2024-01-31T06:03:31.139Z,3.09
2024-01-31T06:05:59.691Z,2.93
2024-01-31T06:08:26.737Z,2.79
2024-01-31T06:10:59.937Z,2.79
2024-01-31T06:13:27.012Z,2.75
2024-01-31T06:15:53.905Z,2.84
2024-01-31T06:18:20.809Z,2.89
2024-01-31T06:20:48.219Z,2.88
2024-01-31T06:23:15.328Z,3.16
2024-01-31T06:25:42.330Z,3.29
2024-01-31T06:28:09.978Z,3.28
2024-01-31T06:30:45.395Z,3.22
2024-01-31T06:33:12.989Z,3.20
2024-01-31T06:35:42.098Z,3.21
2024-01-31T06:38:08.989Z,3.26
2024-01-31T06:40:36.375Z,3.25
2024-01-31T06:43:03.503Z,3.18
2024-01-31T06:45:30.445Z,3.01
2024-01-31T06:47:57.432Z,2.87
2024-01-31T06:50:24.505Z,2.81
2024-01-31T06:52:51.449Z,2.79
2024-01-31T06:55:18.468Z,2.77
2024-01-31T06:57:45.384Z,2.81
2024-01-31T07:00:12.748Z,2.81
2024-01-31T07:02:40.028Z,2.89
2024-01-31T07:05:07.056Z,3.14
2024-01-31T07:07:34.604Z,3.27
2024-01-31T07:10:01.784Z,3.55
2024-01-31T07:12:29.337Z,3.60
2024-01-31T07:14:56.253Z,3.64
2024-01-31T07:17:24.127Z,3.63
2024-01-31T07:19:51.125Z,3.65
2024-01-31T07:22:18.120Z,3.63
2024-01-31T07:24:45.014Z,3.64
2024-01-31T07:27:11.898Z,3.64
2024-01-31T07:29:39.258Z,3.59
2024-01-31T07:32:06.304Z,3.52
2024-01-31T07:34:33.296Z,3.52
2024-01-31T07:37:00.268Z,3.48
2024-01-31T07:39:29.051Z,3.43
2024-01-31T07:41:55.951Z,3.38
2024-01-31T07:44:22.875Z,3.39
2024-01-31T07:46:49.923Z,3.37
2024-01-31T07:49:16.960Z,3.39
2024-01-31T07:51:44.796Z,3.40
2024-01-31T07:54:12.139Z,3.37
2024-01-31T07:56:39.333Z,3.37
2024-01-31T07:59:07.696Z,3.41
2024-01-31T08:01:34.863Z,3.53
2024-01-31T08:04:02.184Z,3.65
2024-01-31T08:06:29.424Z,3.71
2024-01-31T08:09:00.053Z,3.76
2024-01-31T08:11:29.546Z,3.78
2024-01-31T08:13:56.500Z,3.77
2024-01-31T08:16:23.439Z,3.79
2024-01-31T08:18:50.378Z,3.83
2024-01-31T08:21:17.295Z,3.90
2024-01-31T08:23:44.230Z,3.98
2024-01-31T08:26:16.374Z,4.00
2024-01-31T08:28:43.259Z,4.00
2024-01-31T08:31:10.182Z,3.95
2024-01-31T08:33:37.231Z,4.00
2024-01-31T08:36:04.560Z,4.01
2024-01-31T08:38:31.431Z,4.04
2024-01-31T08:40:58.344Z,4.03
2024-01-31T08:43:25.277Z,4.04
2024-01-31T08:45:53.405Z,4.05
2024-01-31T08:48:20.756Z,4.03
2024-01-31T08:50:48.731Z,4.07
2024-01-31T08:53:15.694Z,4.08
2024-01-31T08:55:46.940Z,4.10
2024-01-31T08:58:16.375Z,4.08
2024-01-31T09:00:43.336Z,4.05
2024-01-31T09:03:10.312Z,4.07
2024-01-31T09:05:38.036Z,4.09
2024-01-31T09:08:05.109Z,4.16
2024-01-31T09:10:32.056Z,4.20
2024-01-31T09:12:58.970Z,4.20
2024-01-31T09:15:25.861Z,4.19
2024-01-31T09:17:53.582Z,4.08
2024-01-31T09:20:21.511Z,4.09
2024-01-31T09:22:49.163Z,4.07
2024-01-31T09:25:16.974Z,4.04
2024-01-31T09:27:44.171Z,4.03
2024-01-31T09:30:11.230Z,4.04
2024-01-31T09:32:38.170Z,4.03
2024-01-31T09:35:05.732Z,4.03
2024-01-31T09:37:36.037Z,4.01
2024-01-31T09:40:03.778Z,4.06
2024-01-31T09:42:30.719Z,4.05
2024-01-31T09:44:58.861Z,4.02
2024-01-31T09:47:28.895Z,4.04
2024-01-31T09:49:56.696Z,4.02
2024-01-31T09:52:28.278Z,4.02
2024-01-31T09:55:01.273Z,4.00
2024-01-31T09:57:28.904Z,4.01
2024-01-31T09:59:59.853Z,4.02
2024-01-31T10:02:28.353Z,4.05
2024-01-31T10:04:55.368Z,4.04
2024-01-31T10:07:26.272Z,4.05
2024-01-31T10:09:54.224Z,4.07
2024-01-31T10:12:22.248Z,4.04
2024-01-31T10:14:49.677Z,4.04
2024-01-31T10:17:16.646Z,4.06
2024-01-31T10:19:43.638Z,4.10
2024-01-31T10:22:11.256Z,4.10
2024-01-31T10:24:39.241Z,4.10
2024-01-31T10:27:10.057Z,4.12
2024-01-31T10:29:40.355Z,4.10
2024-01-31T10:32:08.049Z,4.10
2024-01-31T10:34:44.623Z,4.11
2024-01-31T10:39:53.834Z,4.05
2024-01-31T10:42:22.447Z,4.00
2024-01-31T10:44:49.746Z,4.03
2024-01-31T10:47:16.794Z,4.03
2024-01-31T10:49:45.304Z,4.04
2024-01-31T10:52:15.972Z,4.03
2024-01-31T10:54:46.140Z,4.07
2024-01-31T10:57:14.179Z,4.08
2024-01-31T10:59:41.565Z,4.05
2024-01-31T11:02:18.641Z,4.05
2024-01-31T11:04:46.253Z,4.04
2024-01-31T11:07:22.701Z,4.01
2024-01-31T11:09:50.393Z,3.97
2024-01-31T11:12:17.950Z,3.96
2024-01-31T11:14:46.289Z,3.95
2024-01-31T11:17:19.005Z,4.00
2024-01-31T11:19:51.790Z,4.02
2024-01-31T11:22:19.452Z,4.03
2024-01-31T11:24:52.552Z,4.07
2024-01-31T11:27:20.141Z,4.08
2024-01-31T11:29:50.311Z,4.12
2024-01-31T11:32:17.858Z,4.21
2024-01-31T11:34:44.988Z,4.26
2024-01-31T11:37:12.182Z,4.22
2024-01-31T11:39:39.778Z,4.23
2024-01-31T11:42:08.689Z,4.24
2024-01-31T11:44:37.068Z,4.24
2024-01-31T11:47:05.377Z,4.25
2024-01-31T11:49:32.432Z,4.27
2024-01-31T11:51:59.340Z,4.24
2024-01-31T11:54:26.293Z,4.17
2024-01-31T11:56:53.218Z,4.09
2024-01-31T11:59:20.199Z,4.06
2024-01-31T12:01:47.355Z,3.95
2024-01-31T12:04:14.822Z,3.91
2024-01-31T12:06:41.805Z,3.91
2024-01-31T12:09:10.118Z,3.93
2024-01-31T12:11:37.275Z,4.01
2024-01-31T12:14:04.953Z,4.05
2024-01-31T12:16:42.215Z,4.09
2024-01-31T12:19:10.030Z,4.05
2024-01-31T12:21:45.905Z,4.08
2024-01-31T12:24:12.875Z,4.08
2024-01-31T12:26:40.014Z,4.07
2024-01-31T12:29:06.931Z,4.10
2024-01-31T12:31:33.924Z,4.04
2024-01-31T12:34:01.376Z,4.00
2024-01-31T12:36:28.686Z,3.92
2024-01-31T12:38:55.673Z,3.84
2024-01-31T12:41:22.926Z,3.81
2024-01-31T12:43:50.409Z,3.81
2024-01-31T12:46:18.134Z,3.76
2024-01-31T12:48:45.184Z,3.77
2024-01-31T12:51:12.174Z,3.72
2024-01-31T12:53:39.106Z,3.74
2024-01-31T12:56:06.092Z,3.74
2024-01-31T12:58:33.116Z,3.75
2024-01-31T13:01:00.157Z,3.76
2024-01-31T13:03:27.214Z,3.82
2024-01-31T13:05:54.708Z,3.86
2024-01-31T13:08:22.013Z,3.95
2024-01-31T13:10:49.441Z,4.01
2024-01-31T13:13:16.558Z,4.00
2024-01-31T13:15:43.520Z,4.09
2024-01-31T13:18:10.708Z,4.11
2024-01-31T13:20:38.031Z,4.11
2024-01-31T13:23:05.083Z,4.07
2024-01-31T13:25:31.988Z,4.08
2024-01-31T13:27:58.877Z,4.04
2024-01-31T13:30:25.767Z,4.00
2024-01-31T13:32:54.574Z,4.03
2024-01-31T13:35:22.906Z,4.08
2024-01-31T13:37:49.873Z,4.13
2024-01-31T13:40:16.830Z,4.19
2024-01-31T13:42:43.740Z,4.11
2024-01-31T13:45:10.785Z,4.03
2024-01-31T13:47:38.467Z,4.00
2024-01-31T13:50:05.756Z,3.96
2024-01-31T13:52:32.651Z,4.03
2024-01-31T13:54:59.538Z,4.02
2024-01-31T13:57:26.453Z,4.02
2024-01-31T13:59:54.225Z,3.96
2024-01-31T14:02:21.424Z,3.94
2024-01-31T14:04:48.348Z,3.99
2024-01-31T14:07:15.240Z,4.00
2024-01-31T14:09:42.188Z,4.04
2024-01-31T14:12:11.288Z,4.05
2024-01-31T14:14:38.522Z,4.09
2024-01-31T14:17:05.549Z,4.09
2024-01-31T14:19:32.526Z,4.03
2024-01-31T14:22:08.684Z,4.03
2024-01-31T14:24:40.031Z,4.02
2024-01-31T14:27:06.995Z,4.04
2024-01-31T14:29:33.989Z,4.00
2024-01-31T14:32:00.897Z,3.97
2024-01-31T14:34:28.517Z,3.94
2024-01-31T14:36:56.115Z,3.93
2024-01-31T14:39:23.038Z,3.95
2024-01-31T14:41:49.969Z,4.00
2024-01-31T14:44:17.000Z,3.95
2024-01-31T14:46:43.953Z,3.95
2024-01-31T14:49:12.325Z,3.95
2024-01-31T14:51:40.652Z,3.95
2024-01-31T14:54:09.147Z,3.95
2024-01-31T14:56:49.306Z,4.01
2024-01-31T14:59:17.015Z,4.02
2024-01-31T15:01:44.395Z,4.01
2024-01-31T15:04:12.051Z,3.98
2024-01-31T15:06:39.450Z,3.96
2024-01-31T15:09:07.218Z,3.91
2024-01-31T15:11:34.732Z,3.90
2024-01-31T15:14:01.889Z,3.90
2024-01-31T15:16:28.892Z,3.90
2024-01-31T15:18:55.938Z,3.87
2024-01-31T15:21:23.204Z,3.83
2024-01-31T15:23:50.261Z,3.83
2024-01-31T15:26:17.396Z,3.78
2024-01-31T15:28:44.366Z,3.76
2024-01-31T15:31:11.263Z,3.75
2024-01-31T15:33:38.574Z,3.76
2024-01-31T15:36:06.300Z,3.73
2024-01-31T15:38:33.282Z,3.73
2024-01-31T15:41:00.826Z,3.71
2024-01-31T15:43:27.749Z,3.70
2024-01-31T15:45:54.695Z,3.67
2024-01-31T15:48:22.934Z,3.69
2024-01-31T15:50:50.008Z,3.69
2024-01-31T15:53:17.607Z,3.66
2024-01-31T15:55:44.531Z,3.69
2024-01-31T15:58:11.406Z,3.64
2024-01-31T16:00:38.424Z,3.63
2024-01-31T16:03:05.510Z,3.64
2024-01-31T16:05:32.478Z,3.61
2024-01-31T16:07:59.467Z,3.77
2024-01-31T16:10:29.883Z,3.87
2024-01-31T16:12:57.053Z,3.89
2024-01-31T16:15:23.967Z,3.69
2024-01-31T16:17:50.972Z,3.64
2024-01-31T16:20:18.137Z,3.59
2024-01-31T16:22:45.232Z,3.66
2024-01-31T16:25:12.108Z,3.60
2024-01-31T16:27:39.109Z,3.55
2024-01-31T16:30:06.486Z,3.55
2024-01-31T16:32:33.504Z,3.58
2024-01-31T16:35:00.517Z,3.65
2024-01-31T16:37:28.667Z,3.58
2024-01-31T16:39:55.550Z,3.63
2024-01-31T16:42:22.516Z,3.59
2024-01-31T16:44:51.020Z,3.57
2024-01-31T16:47:17.942Z,3.56
2024-01-31T16:49:45.429Z,3.75
2024-01-31T16:52:12.743Z,3.75
2024-01-31T16:54:39.645Z,3.89
2024-01-31T16:57:07.330Z,3.85
2024-01-31T16:59:34.273Z,3.87
2024-01-31T17:02:01.205Z,3.79
2024-01-31T17:04:28.270Z,3.69
2024-01-31T17:06:55.220Z,3.75
2024-01-31T17:09:23.228Z,3.70
2024-01-31T17:11:50.110Z,3.81
2024-01-31T17:14:17.032Z,3.77
2024-01-31T17:16:44.454Z,3.79
2024-01-31T17:19:11.482Z,3.75
2024-01-31T17:21:39.596Z,3.67
2024-01-31T17:24:06.758Z,3.60
2024-01-31T17:26:34.079Z,3.53
2024-01-31T17:29:01.007Z,3.53
2024-01-31T17:31:27.899Z,3.55
2024-01-31T17:33:57.655Z,3.41
2024-01-31T17:36:24.928Z,3.43
2024-01-31T17:38:51.970Z,3.47
2024-01-31T17:41:19.751Z,3.72
2024-01-31T17:43:46.686Z,3.48
2024-01-31T17:46:23.332Z,3.48
2024-01-31T17:48:50.787Z,3.31
2024-01-31T17:51:17.856Z,3.28
2024-01-31T17:53:44.830Z,3.11
2024-01-31T17:56:11.822Z,3.14
2024-01-31T17:58:41.136Z,3.15
2024-01-31T18:01:11.775Z,3.09
2024-01-31T18:03:38.749Z,3.03
2024-01-31T18:06:05.932Z,3.20
2024-01-31T18:08:32.981Z,3.24
2024-01-31T18:11:00.117Z,3.22
2024-01-31T18:13:27.032Z,3.50
2024-01-31T18:15:54.049Z,3.48
2024-01-31T18:18:24.978Z,3.49
2024-01-31T18:20:55.261Z,3.57
2024-01-31T18:23:22.195Z,3.52
2024-01-31T18:25:49.100Z,3.58
2024-01-31T18:28:16.143Z,3.57
2024-01-31T18:30:43.131Z,3.71
2024-01-31T18:33:10.304Z,3.76
2024-01-31T18:35:37.317Z,3.77
2024-01-31T18:38:05.150Z,3.82
2024-01-31T18:40:32.057Z,3.84
2024-01-31T18:42:58.969Z,3.78
2024-01-31T18:45:25.915Z,3.78
2024-01-31T18:47:53.168Z,3.91
2024-01-31T18:50:20.323Z,3.85
2024-01-31T18:52:47.327Z,3.87
2024-01-31T18:55:14.285Z,3.87
2024-01-31T18:57:41.202Z,3.95
2024-01-31T19:00:09.825Z,4.00
2024-01-31T19:02:36.992Z,4.01
2024-01-31T19:05:06.795Z,3.98
2024-01-31T19:07:33.962Z,3.91
2024-01-31T19:10:00.855Z,3.87
2024-01-31T19:12:27.785Z,3.86
2024-01-31T19:14:54.850Z,3.83
2024-01-31T19:17:27.777Z,3.84
2024-01-31T19:19:57.455Z,3.72
2024-01-31T19:22:27.433Z,3.65
2024-01-31T19:24:54.837Z,3.67
2024-01-31T19:27:22.500Z,3.70
2024-01-31T19:29:49.669Z,3.69
2024-01-31T19:32:17.086Z,3.59
2024-01-31T19:34:44.361Z,3.53
2024-01-31T19:37:11.288Z,3.30
2024-01-31T19:39:38.294Z,3.16
2024-01-31T19:42:05.470Z,3.05
2024-01-31T19:44:32.479Z,3.08
2024-01-31T19:46:59.849Z,2.95
2024-01-31T19:49:27.445Z,2.91
2024-01-31T19:51:54.930Z,2.94
2024-01-31T19:54:25.330Z,2.79
2024-01-31T19:56:52.709Z,2.68
2024-01-31T19:59:19.891Z,2.68
2024-01-31T20:01:46.856Z,2.61
2024-01-31T20:04:14.248Z,2.55
2024-01-31T20:06:42.089Z,2.41
2024-01-31T20:09:10.243Z,2.35
2024-01-31T20:11:37.321Z,2.44
2024-01-31T20:14:04.366Z,2.38
2024-01-31T20:16:31.276Z,2.33
2024-01-31T20:18:58.386Z,2.29
2024-01-31T20:21:25.478Z,2.37
2024-01-31T20:23:54.980Z,2.17
2024-01-31T20:26:23.812Z,2.13
2024-01-31T20:28:51.383Z,2.07
2024-01-31T20:31:18.365Z,1.98
2024-01-31T20:33:45.421Z,2.01
2024-01-31T20:36:17.104Z,1.97
2024-01-31T20:38:44.180Z,2.02
2024-01-31T20:41:11.207Z,2.06
2024-01-31T20:43:38.189Z,2.02
2024-01-31T20:46:05.697Z,1.95
2024-01-31T20:48:40.332Z,1.95
2024-01-31T20:51:08.725Z,1.94
2024-01-31T20:53:35.943Z,1.98
2024-01-31T20:56:04.256Z,2.02
2024-01-31T20:58:31.218Z,1.86
2024-01-31T21:00:58.793Z,1.76
2024-01-31T21:03:26.041Z,1.69
2024-01-31T21:05:53.050Z,1.65
2024-01-31T21:08:19.970Z,1.59
2024-01-31T21:10:46.910Z,1.55
2024-01-31T21:13:16.780Z,1.44
2024-01-31T21:15:43.847Z,1.38
2024-01-31T21:18:13.632Z,1.44
2024-01-31T21:20:40.814Z,1.41
2024-01-31T21:23:07.779Z,1.43
2024-01-31T21:25:34.654Z,1.50
2024-01-31T21:28:03.098Z,1.46
2024-01-31T21:30:29.988Z,1.51
2024-01-31T21:32:56.935Z,1.55
2024-01-31T21:35:24.109Z,1.57
2024-01-31T21:37:51.712Z,1.58
2024-01-31T21:40:18.589Z,1.63
2024-01-31T21:42:45.513Z,1.57
2024-01-31T21:45:13.901Z,1.57
2024-01-31T21:47:41.065Z,1.57
2024-01-31T21:50:08.401Z,1.60
2024-01-31T21:52:35.502Z,1.64
2024-01-31T21:55:02.392Z,1.67
2024-01-31T21:57:29.975Z,1.67
2024-01-31T21:59:58.565Z,1.59
2024-01-31T22:02:25.992Z,1.56
2024-01-31T22:04:53.524Z,1.52
2024-01-31T22:07:21.252Z,1.48
2024-01-31T22:09:49.153Z,1.41
2024-01-31T22:12:16.364Z,1.38
2024-01-31T22:14:43.543Z,1.20
2024-01-31T22:17:10.846Z,1.17
2024-01-31T22:19:41.144Z,1.02
2024-01-31T22:22:08.983Z,0.89
2024-01-31T22:24:36.059Z,0.74
2024-01-31T22:27:03.178Z,0.77
2024-01-31T22:29:30.196Z,0.77
2024-01-31T22:31:57.205Z,0.74
2024-01-31T22:34:24.339Z,0.62
2024-01-31T22:36:51.305Z,0.60
2024-01-31T22:39:19.294Z,0.59
2024-01-31T22:41:46.434Z,0.55
2024-01-31T22:44:13.362Z,0.39
2024-01-31T22:46:40.373Z,0.27
2024-01-31T22:49:09.921Z,0.12
2024-01-31T22:51:39.036Z,0.09
2024-01-31T22:54:06.230Z,0.07
2024-01-31T22:56:34.430Z,0.04
2024-01-31T22:59:01.384Z,0.06
2024-01-31T23:01:28.565Z,-0.02
2024-01-31T23:03:55.594Z,-0.04
2024-01-31T23:06:22.663Z,-0.16
2024-01-31T23:08:50.075Z,-0.28
2024-01-31T23:11:17.087Z,-0.34
2024-01-31T23:13:43.978Z,-0.36
2024-01-31T23:16:10.871Z,-0.29
2024-01-31T23:18:37.953Z,-0.29
2024-01-31T23:21:08.715Z,-0.32
2024-01-31T23:23:35.682Z,-0.16
2024-01-31T23:26:02.673Z,-0.23
2024-01-31T23:28:29.555Z,-0.33
2024-01-31T23:30:56.554Z,-0.26
2024-01-31T23:33:23.554Z,-0.27
2024-01-31T23:35:50.624Z,-0.32
2024-01-31T23:38:18.643Z,-0.36
2024-01-31T23:40:45.521Z,-0.43
2024-01-31T23:43:12.470Z,-0.44
2024-01-31T23:45:39.523Z,-0.44
2024-01-31T23:48:06.836Z,-0.41
2024-01-31T23:50:33.840Z,-0.55
2024-01-31T23:53:00.792Z,-0.51
2024-01-31T23:55:27.681Z,-0.57
2024-01-31T23:57:54.618Z,-0.64
